sensor_id;sensor_type;location;lat;lon;timestamp;pressure;altitude;pressure_sealevel;temperature;humidity
60920;BME280;59039;52.108;19.942;2023-07-13T00:01:02;100150.33;;;19.90;79.45
60920;BME280;59039;52.108;19.942;2023-07-13T00:03:27;100156.88;;;19.88;78.49
60920;BME280;59039;52.108;19.942;2023-07-13T00:05:59;100158.37;;;19.87;78.38
60920;BME280;59039;52.108;19.942;2023-07-13T00:08:25;100150.61;;;19.85;79.00
60920;BME280;59039;52.108;19.942;2023-07-13T00:10:51;100151.50;;;19.84;77.44
60920;BME280;59039;52.108;19.942;2023-07-13T00:13:17;100155.29;;;19.83;78.32
60920;BME280;59039;52.108;19.942;2023-07-13T00:15:42;100157.11;;;19.82;79.31
60920;BME280;59039;52.108;19.942;2023-07-13T00:18:07;100156.59;;;19.81;79.65
60920;BME280;59039;52.108;19.942;2023-07-13T00:20:33;100156.11;;;19.80;80.07
60920;BME280;59039;52.108;19.942;2023-07-13T00:22:58;100157.95;;;19.79;79.32
60920;BME280;59039;52.108;19.942;2023-07-13T00:25:23;100156.92;;;19.78;78.38
60920;BME280;59039;52.108;19.942;2023-07-13T00:27:48;100162.74;;;19.77;78.25
60920;BME280;59039;52.108;19.942;2023-07-13T00:30:14;100166.02;;;19.78;77.14
60920;BME280;59039;52.108;19.942;2023-07-13T00:32:39;100167.38;;;19.77;76.96
60920;BME280;59039;52.108;19.942;2023-07-13T00:35:05;100167.30;;;19.76;77.75
60920;BME280;59039;52.108;19.942;2023-07-13T00:37:30;100165.63;;;19.76;79.14
60920;BME280;59039;52.108;19.942;2023-07-13T00:39:56;100170.75;;;19.73;78.80
60920;BME280;59039;52.108;19.942;2023-07-13T00:42:21;100169.83;;;19.72;78.09
60920;BME280;59039;52.108;19.942;2023-07-13T00:47:30;100164.36;;;19.69;78.47
60920;BME280;59039;52.108;19.942;2023-07-13T00:49:56;100168.72;;;19.68;77.92
60920;BME280;59039;52.108;19.942;2023-07-13T00:52:21;100169.36;;;19.66;77.43
60920;BME280;59039;52.108;19.942;2023-07-13T00:54:46;100164.80;;;19.63;78.75
60920;BME280;59039;52.108;19.942;2023-07-13T00:57:16;100162.86;;;19.59;79.21
60920;BME280;59039;52.108;19.942;2023-07-13T00:59:43;100157.30;;;19.56;79.73
60920;BME280;59039;52.108;19.942;2023-07-13T01:02:10;100156.36;;;19.54;79.51
60920;BME280;59039;52.108;19.942;2023-07-13T01:04:36;100159.07;;;19.53;78.14
60920;BME280;59039;52.108;19.942;2023-07-13T01:07:01;100160.27;;;19.52;77.74
60920;BME280;59039;52.108;19.942;2023-07-13T01:09:26;100161.17;;;19.51;78.94
60920;BME280;59039;52.108;19.942;2023-07-13T01:11:52;100165.77;;;19.50;78.60
60920;BME280;59039;52.108;19.942;2023-07-13T01:14:17;100170.90;;;19.49;79.82
60920;BME280;59039;52.108;19.942;2023-07-13T01:16:44;100173.24;;;19.46;79.73
60920;BME280;59039;52.108;19.942;2023-07-13T01:19:29;100185.27;;;19.46;79.33
60920;BME280;59039;52.108;19.942;2023-07-13T01:21:57;100186.38;;;19.46;79.77
60920;BME280;59039;52.108;19.942;2023-07-13T01:24:22;100172.43;;;19.46;79.43
60920;BME280;59039;52.108;19.942;2023-07-13T01:26:47;100167.17;;;19.45;79.79
60920;BME280;59039;52.108;19.942;2023-07-13T01:29:12;100167.45;;;19.45;79.95
60920;BME280;59039;52.108;19.942;2023-07-13T01:31:38;100163.50;;;19.44;79.88
60920;BME280;59039;52.108;19.942;2023-07-13T01:34:03;100160.79;;;19.42;80.61
60920;BME280;59039;52.108;19.942;2023-07-13T01:36:28;100160.64;;;19.39;81.05
60920;BME280;59039;52.108;19.942;2023-07-13T01:38:54;100161.31;;;19.38;81.16
60920;BME280;59039;52.108;19.942;2023-07-13T01:41:19;100155.60;;;19.37;81.15
60920;BME280;59039;52.108;19.942;2023-07-13T01:43:44;100152.02;;;19.36;81.17
60920;BME280;59039;52.108;19.942;2023-07-13T01:46:10;100149.18;;;19.37;80.27
60920;BME280;59039;52.108;19.942;2023-07-13T01:48:35;100147.49;;;19.37;80.84
60920;BME280;59039;52.108;19.942;2023-07-13T01:51:00;100146.90;;;19.39;80.86
60920;BME280;59039;52.108;19.942;2023-07-13T01:53:25;100152.66;;;19.40;79.71
60920;BME280;59039;52.108;19.942;2023-07-13T01:55:51;100153.63;;;19.40;79.11
60920;BME280;59039;52.108;19.942;2023-07-13T01:58:16;100154.80;;;19.41;79.74
60920;BME280;59039;52.108;19.942;2023-07-13T02:00:41;100156.13;;;19.41;78.58
60920;BME280;59039;52.108;19.942;2023-07-13T02:03:07;100156.38;;;19.40;78.71
60920;BME280;59039;52.108;19.942;2023-07-13T02:05:32;100153.67;;;19.40;79.46
60920;BME280;59039;52.108;19.942;2023-07-13T02:07:57;100154.06;;;19.40;80.14
60920;BME280;59039;52.108;19.942;2023-07-13T02:10:22;100154.15;;;19.38;80.62
60920;BME280;59039;52.108;19.942;2023-07-13T02:12:48;100149.15;;;19.37;80.84
60920;BME280;59039;52.108;19.942;2023-07-13T02:15:13;100147.17;;;19.36;81.18
60920;BME280;59039;52.108;19.942;2023-07-13T02:17:38;100146.84;;;19.34;81.05
60920;BME280;59039;52.108;19.942;2023-07-13T02:20:04;100153.41;;;19.33;81.25
60920;BME280;59039;52.108;19.942;2023-07-13T02:22:30;100158.04;;;19.32;81.55
60920;BME280;59039;52.108;19.942;2023-07-13T02:24:55;100158.13;;;19.31;81.46
60920;BME280;59039;52.108;19.942;2023-07-13T02:27:20;100156.77;;;19.30;81.59
60920;BME280;59039;52.108;19.942;2023-07-13T02:29:46;100154.95;;;19.30;81.58
60920;BME280;59039;52.108;19.942;2023-07-13T02:32:11;100152.83;;;19.31;80.25
60920;BME280;59039;52.108;19.942;2023-07-13T02:34:36;100149.00;;;19.32;80.93
60920;BME280;59039;52.108;19.942;2023-07-13T02:37:01;100151.16;;;19.32;81.51
60920;BME280;59039;52.108;19.942;2023-07-13T02:39:27;100148.29;;;19.32;81.58
60920;BME280;59039;52.108;19.942;2023-07-13T02:41:52;100153.21;;;19.31;81.44
60920;BME280;59039;52.108;19.942;2023-07-13T02:44:17;100154.19;;;19.29;81.75
60920;BME280;59039;52.108;19.942;2023-07-13T02:46:42;100152.20;;;19.28;81.07
60920;BME280;59039;52.108;19.942;2023-07-13T02:49:08;100157.64;;;19.27;80.55
60920;BME280;59039;52.108;19.942;2023-07-13T02:51:33;100157.38;;;19.26;81.02
60920;BME280;59039;52.108;19.942;2023-07-13T02:53:58;100152.55;;;19.25;80.80
60920;BME280;59039;52.108;19.942;2023-07-13T02:56:24;100146.38;;;19.24;80.00
60920;BME280;59039;52.108;19.942;2023-07-13T02:58:50;100145.53;;;19.21;79.84
60920;BME280;59039;52.108;19.942;2023-07-13T03:01:16;100149.10;;;19.19;80.79
60920;BME280;59039;52.108;19.942;2023-07-13T03:03:41;100150.05;;;19.17;81.07
60920;BME280;59039;52.108;19.942;2023-07-13T03:06:06;100152.52;;;19.15;81.42
60920;BME280;59039;52.108;19.942;2023-07-13T03:08:32;100149.77;;;19.14;81.49
60920;BME280;59039;52.108;19.942;2023-07-13T03:11:08;100152.55;;;19.12;81.38
60920;BME280;59039;52.108;19.942;2023-07-13T03:13:33;100147.44;;;19.11;81.35
60920;BME280;59039;52.108;19.942;2023-07-13T03:15:59;100142.06;;;19.10;81.31
60920;BME280;59039;52.108;19.942;2023-07-13T03:18:26;100147.15;;;19.09;81.29
60920;BME280;59039;52.108;19.942;2023-07-13T03:20:52;100146.78;;;19.08;80.72
60920;BME280;59039;52.108;19.942;2023-07-13T03:23:17;100143.67;;;19.09;79.68
60920;BME280;59039;52.108;19.942;2023-07-13T03:25:42;100139.98;;;19.09;79.30
60920;BME280;59039;52.108;19.942;2023-07-13T03:28:08;100148.46;;;19.10;79.17
60920;BME280;59039;52.108;19.942;2023-07-13T03:30:33;100146.03;;;19.10;79.18
60920;BME280;59039;52.108;19.942;2023-07-13T03:32:58;100147.05;;;19.11;78.72
60920;BME280;59039;52.108;19.942;2023-07-13T03:35:23;100146.09;;;19.10;78.62
60920;BME280;59039;52.108;19.942;2023-07-13T03:37:49;100147.56;;;19.10;78.71
60920;BME280;59039;52.108;19.942;2023-07-13T03:40:14;100141.85;;;19.11;79.12
60920;BME280;59039;52.108;19.942;2023-07-13T03:42:39;100139.81;;;19.13;78.95
60920;BME280;59039;52.108;19.942;2023-07-13T03:45:05;100143.05;;;19.16;79.02
60920;BME280;59039;52.108;19.942;2023-07-13T03:47:30;100146.82;;;19.19;79.08
60920;BME280;59039;52.108;19.942;2023-07-13T03:49:55;100149.21;;;19.23;78.92
60920;BME280;59039;52.108;19.942;2023-07-13T03:52:20;100156.91;;;19.27;78.99
60920;BME280;59039;52.108;19.942;2023-07-13T03:54:46;100161.56;;;19.30;79.77
60920;BME280;59039;52.108;19.942;2023-07-13T03:57:11;100165.98;;;19.36;80.03
60920;BME280;59039;52.108;19.942;2023-07-13T03:59:36;100170.61;;;19.44;80.11
60920;BME280;59039;52.108;19.942;2023-07-13T04:02:02;100173.00;;;19.52;80.04
60920;BME280;59039;52.108;19.942;2023-07-13T04:04:27;100169.35;;;19.59;79.80
60920;BME280;59039;52.108;19.942;2023-07-13T04:06:52;100165.17;;;19.64;78.74
60920;BME280;59039;52.108;19.942;2023-07-13T04:09:18;100171.27;;;19.68;79.06
60920;BME280;59039;52.108;19.942;2023-07-13T04:11:43;100174.16;;;19.70;78.85
60920;BME280;59039;52.108;19.942;2023-07-13T04:14:08;100179.88;;;19.72;79.19
60920;BME280;59039;52.108;19.942;2023-07-13T04:16:33;100183.81;;;19.73;79.35
60920;BME280;59039;52.108;19.942;2023-07-13T04:18:59;100187.25;;;19.73;79.74
60920;BME280;59039;52.108;19.942;2023-07-13T04:21:24;100188.06;;;19.74;79.91
60920;BME280;59039;52.108;19.942;2023-07-13T04:23:50;100184.40;;;19.74;79.84
60920;BME280;59039;52.108;19.942;2023-07-13T04:26:15;100187.04;;;19.75;79.89
60920;BME280;59039;52.108;19.942;2023-07-13T04:28:40;100190.89;;;19.75;79.69
60920;BME280;59039;52.108;19.942;2023-07-13T04:31:05;100194.23;;;19.76;79.93
60920;BME280;59039;52.108;19.942;2023-07-13T04:33:31;100194.83;;;19.76;79.43
60920;BME280;59039;52.108;19.942;2023-07-13T04:35:56;100202.33;;;19.78;79.40
60920;BME280;59039;52.108;19.942;2023-07-13T04:38:23;100207.70;;;19.82;79.25
60920;BME280;59039;52.108;19.942;2023-07-13T04:40:48;100208.83;;;19.84;79.31
60920;BME280;59039;52.108;19.942;2023-07-13T04:43:14;100210.63;;;19.88;79.57
60920;BME280;59039;52.108;19.942;2023-07-13T04:45:39;100205.83;;;19.91;79.49
60920;BME280;59039;52.108;19.942;2023-07-13T04:48:04;100204.30;;;19.94;80.11
60920;BME280;59039;52.108;19.942;2023-07-13T04:50:30;100207.77;;;19.97;79.89
60920;BME280;59039;52.108;19.942;2023-07-13T04:52:55;100208.05;;;20.01;80.35
60920;BME280;59039;52.108;19.942;2023-07-13T04:55:20;100210.17;;;20.07;80.17
60920;BME280;59039;52.108;19.942;2023-07-13T04:57:46;100207.13;;;20.12;80.11
60920;BME280;59039;52.108;19.942;2023-07-13T05:00:12;100201.71;;;20.21;80.32
60920;BME280;59039;52.108;19.942;2023-07-13T05:02:38;100199.95;;;20.29;80.38
60920;BME280;59039;52.108;19.942;2023-07-13T05:05:03;100204.38;;;20.35;79.62
60920;BME280;59039;52.108;19.942;2023-07-13T05:07:29;100211.58;;;20.40;79.36
60920;BME280;59039;52.108;19.942;2023-07-13T05:09:54;100212.48;;;20.44;78.77
60920;BME280;59039;52.108;19.942;2023-07-13T05:12:19;100218.59;;;20.46;78.00
60920;BME280;59039;52.108;19.942;2023-07-13T05:14:44;100224.02;;;20.47;77.96
60920;BME280;59039;52.108;19.942;2023-07-13T05:17:10;100226.77;;;20.48;78.03
60920;BME280;59039;52.108;19.942;2023-07-13T05:19:35;100227.80;;;20.49;78.07
60920;BME280;59039;52.108;19.942;2023-07-13T05:22:00;100230.54;;;20.50;77.49
60920;BME280;59039;52.108;19.942;2023-07-13T05:24:26;100233.16;;;20.50;77.34
60920;BME280;59039;52.108;19.942;2023-07-13T05:26:51;100240.77;;;20.50;77.49
60920;BME280;59039;52.108;19.942;2023-07-13T05:29:16;100241.27;;;20.49;77.37
60920;BME280;59039;52.108;19.942;2023-07-13T05:31:42;100242.61;;;20.48;77.66
60920;BME280;59039;52.108;19.942;2023-07-13T05:34:07;100244.56;;;20.48;77.31
60920;BME280;59039;52.108;19.942;2023-07-13T05:36:32;100240.15;;;20.48;77.20
60920;BME280;59039;52.108;19.942;2023-07-13T05:38:58;100241.52;;;20.47;76.99
60920;BME280;59039;52.108;19.942;2023-07-13T05:41:23;100239.29;;;20.48;77.24
60920;BME280;59039;52.108;19.942;2023-07-13T05:43:48;100234.17;;;20.52;77.56
60920;BME280;59039;52.108;19.942;2023-07-13T05:46:13;100236.87;;;20.57;77.82
60920;BME280;59039;52.108;19.942;2023-07-13T05:48:39;100234.70;;;20.65;77.81
60920;BME280;59039;52.108;19.942;2023-07-13T05:51:04;100234.98;;;20.75;77.82
60920;BME280;59039;52.108;19.942;2023-07-13T05:53:29;100240.90;;;20.88;77.81
60920;BME280;59039;52.108;19.942;2023-07-13T05:55:55;100249.91;;;21.01;77.40
60920;BME280;59039;52.108;19.942;2023-07-13T05:58:20;100249.94;;;21.15;77.50
60920;BME280;59039;52.108;19.942;2023-07-13T06:00:47;100250.88;;;21.30;77.08
60920;BME280;59039;52.108;19.942;2023-07-13T06:03:12;100250.23;;;21.40;77.04
60920;BME280;59039;52.108;19.942;2023-07-13T06:05:38;100254.31;;;21.53;77.04
60920;BME280;59039;52.108;19.942;2023-07-13T06:08:04;100250.89;;;21.65;77.08
60920;BME280;59039;52.108;19.942;2023-07-13T06:10:31;100250.20;;;21.80;77.24
60920;BME280;59039;52.108;19.942;2023-07-13T06:12:57;100248.66;;;21.96;76.75
60920;BME280;59039;52.108;19.942;2023-07-13T06:15:22;100246.99;;;22.14;76.72
60920;BME280;59039;52.108;19.942;2023-07-13T06:17:47;100246.31;;;22.35;76.50
60920;BME280;59039;52.108;19.942;2023-07-13T06:20:13;100250.40;;;22.57;76.09
60920;BME280;59039;52.108;19.942;2023-07-13T06:22:38;100248.24;;;22.77;75.15
60920;BME280;59039;52.108;19.942;2023-07-13T06:25:03;100250.27;;;22.96;74.19
60920;BME280;59039;52.108;19.942;2023-07-13T06:27:29;100247.73;;;23.10;73.12
60920;BME280;59039;52.108;19.942;2023-07-13T06:29:54;100245.14;;;23.23;72.93
60920;BME280;59039;52.108;19.942;2023-07-13T06:32:19;100246.81;;;23.35;72.56
60920;BME280;59039;52.108;19.942;2023-07-13T06:34:45;100244.34;;;23.50;72.43
60920;BME280;59039;52.108;19.942;2023-07-13T06:37:10;100237.38;;;23.65;72.31
60920;BME280;59039;52.108;19.942;2023-07-13T06:39:35;100236.28;;;23.80;71.67
60920;BME280;59039;52.108;19.942;2023-07-13T06:42:01;100236.20;;;23.95;70.67
60920;BME280;59039;52.108;19.942;2023-07-13T06:44:26;100230.70;;;24.09;70.13
60920;BME280;59039;52.108;19.942;2023-07-13T06:46:51;100228.05;;;24.25;69.52
60920;BME280;59039;52.108;19.942;2023-07-13T06:49:16;100227.30;;;24.39;68.53
60920;BME280;59039;52.108;19.942;2023-07-13T06:51:42;100227.02;;;24.54;67.76
60920;BME280;59039;52.108;19.942;2023-07-13T06:54:07;100222.14;;;24.67;67.34
60920;BME280;59039;52.108;19.942;2023-07-13T06:56:32;100215.77;;;24.80;67.97
60920;BME280;59039;52.108;19.942;2023-07-13T06:58:58;100215.58;;;24.92;66.66
60920;BME280;59039;52.108;19.942;2023-07-13T07:01:23;100208.36;;;25.01;65.31
60920;BME280;59039;52.108;19.942;2023-07-13T07:03:48;100206.65;;;25.09;64.24
60920;BME280;59039;52.108;19.942;2023-07-13T07:06:16;100202.04;;;25.16;62.97
60920;BME280;59039;52.108;19.942;2023-07-13T07:08:41;100201.94;;;25.27;64.84
60920;BME280;59039;52.108;19.942;2023-07-13T07:11:12;100202.13;;;25.38;63.58
60920;BME280;59039;52.108;19.942;2023-07-13T07:13:37;100208.86;;;25.51;64.54
60920;BME280;59039;52.108;19.942;2023-07-13T07:16:02;100208.66;;;25.62;63.46
60920;BME280;59039;52.108;19.942;2023-07-13T07:18:28;100208.98;;;25.74;63.20
60920;BME280;59039;52.108;19.942;2023-07-13T07:20:53;100211.92;;;25.88;64.23
60920;BME280;59039;52.108;19.942;2023-07-13T07:23:18;100211.92;;;26.01;63.36
60920;BME280;59039;52.108;19.942;2023-07-13T07:25:44;100212.98;;;26.13;63.43
60920;BME280;59039;52.108;19.942;2023-07-13T07:28:09;100209.26;;;26.23;63.18
60920;BME280;59039;52.108;19.942;2023-07-13T07:30:34;100208.63;;;26.34;62.92
60920;BME280;59039;52.108;19.942;2023-07-13T07:33:00;100206.71;;;26.39;61.57
60920;BME280;59039;52.108;19.942;2023-07-13T07:35:25;100209.92;;;26.46;61.16
60920;BME280;59039;52.108;19.942;2023-07-13T07:37:50;100213.05;;;26.57;61.04
60920;BME280;59039;52.108;19.942;2023-07-13T07:40:15;100209.63;;;26.70;60.43
60920;BME280;59039;52.108;19.942;2023-07-13T07:42:41;100213.52;;;26.84;61.11
60920;BME280;59039;52.108;19.942;2023-07-13T07:45:06;100213.31;;;26.92;60.62
60920;BME280;59039;52.108;19.942;2023-07-13T07:47:31;100214.18;;;26.99;59.54
60920;BME280;59039;52.108;19.942;2023-07-13T07:49:57;100216.07;;;27.06;59.93
60920;BME280;59039;52.108;19.942;2023-07-13T07:52:22;100218.88;;;27.16;59.51
60920;BME280;59039;52.108;19.942;2023-07-13T07:54:47;100218.29;;;27.27;59.15
60920;BME280;59039;52.108;19.942;2023-07-13T07:57:13;100222.27;;;27.39;58.65
60920;BME280;59039;52.108;19.942;2023-07-13T07:59:38;100224.60;;;27.52;58.32
60920;BME280;59039;52.108;19.942;2023-07-13T08:02:03;100221.08;;;27.63;58.24
60920;BME280;59039;52.108;19.942;2023-07-13T08:04:29;100218.02;;;27.64;57.41
60920;BME280;59039;52.108;19.942;2023-07-13T08:06:54;100219.07;;;27.60;57.10
60920;BME280;59039;52.108;19.942;2023-07-13T08:09:19;100219.55;;;27.55;57.10
60920;BME280;59039;52.108;19.942;2023-07-13T08:11:45;100224.79;;;27.52;58.10
60920;BME280;59039;52.108;19.942;2023-07-13T08:14:10;100216.52;;;27.53;58.24
60920;BME280;59039;52.108;19.942;2023-07-13T08:16:35;100226.74;;;27.56;56.99
60920;BME280;59039;52.108;19.942;2023-07-13T08:19:00;100229.52;;;27.64;57.44
60920;BME280;59039;52.108;19.942;2023-07-13T08:21:26;100231.33;;;27.71;57.02
60920;BME280;59039;52.108;19.942;2023-07-13T08:23:51;100232.98;;;27.78;57.23
60920;BME280;59039;52.108;19.942;2023-07-13T08:26:16;100238.46;;;27.80;57.24
60920;BME280;59039;52.108;19.942;2023-07-13T08:28:41;100239.06;;;27.78;56.83
60920;BME280;59039;52.108;19.942;2023-07-13T08:31:07;100241.39;;;27.73;56.54
60920;BME280;59039;52.108;19.942;2023-07-13T08:33:33;100245.82;;;27.67;56.93
60920;BME280;59039;52.108;19.942;2023-07-13T08:35:59;100250.27;;;27.59;56.80
60920;BME280;59039;52.108;19.942;2023-07-13T08:38:24;100255.87;;;27.51;57.12
60920;BME280;59039;52.108;19.942;2023-07-13T08:40:51;100254.64;;;27.42;57.19
60920;BME280;59039;52.108;19.942;2023-07-13T08:43:18;100250.73;;;27.32;56.92
60920;BME280;59039;52.108;19.942;2023-07-13T08:45:57;100249.27;;;27.22;57.24
60920;BME280;59039;52.108;19.942;2023-07-13T08:48:28;100253.59;;;27.11;57.21
60920;BME280;59039;52.108;19.942;2023-07-13T08:52:53;100245.33;;;26.93;57.98
60920;BME280;59039;52.108;19.942;2023-07-13T08:57:30;100247.30;;;26.74;58.08
60920;BME280;59039;52.108;19.942;2023-07-13T08:59:56;100250.71;;;26.62;58.43
60920;BME280;59039;52.108;19.942;2023-07-13T09:02:28;100250.79;;;26.54;59.19
60920;BME280;59039;52.108;19.942;2023-07-13T09:05:00;100255.15;;;26.45;59.08
60920;BME280;59039;52.108;19.942;2023-07-13T09:07:29;100254.33;;;26.35;59.35
60920;BME280;59039;52.108;19.942;2023-07-13T09:10:05;100256.14;;;26.26;59.54
60920;BME280;59039;52.108;19.942;2023-07-13T09:12:56;100256.45;;;26.18;60.11
60920;BME280;59039;52.108;19.942;2023-07-13T09:15:29;100257.64;;;26.10;60.42
60920;BME280;59039;52.108;19.942;2023-07-13T09:17:55;100260.16;;;26.01;60.25
60920;BME280;59039;52.108;19.942;2023-07-13T09:22:53;100263.00;;;25.84;59.69
60920;BME280;59039;52.108;19.942;2023-07-13T09:25:32;100260.06;;;25.77;59.85
60920;BME280;59039;52.108;19.942;2023-07-13T09:28:33;100262.02;;;25.69;59.97
60920;BME280;59039;52.108;19.942;2023-07-13T09:30:51;100263.94;;;25.62;60.52
60920;BME280;59039;52.108;19.942;2023-07-13T09:33:17;100269.15;;;25.57;61.06
60920;BME280;59039;52.108;19.942;2023-07-13T09:35:42;100278.09;;;25.51;61.68
60920;BME280;59039;52.108;19.942;2023-07-13T09:40:38;100278.73;;;25.37;63.66
60920;BME280;59039;52.108;19.942;2023-07-13T09:43:05;100279.44;;;25.32;64.59
60920;BME280;59039;52.108;19.942;2023-07-13T09:45:33;100281.04;;;25.27;65.57
60920;BME280;59039;52.108;19.942;2023-07-13T09:48:20;100280.63;;;25.22;65.80
60920;BME280;59039;52.108;19.942;2023-07-13T09:50:44;100286.41;;;25.16;67.05
60920;BME280;59039;52.108;19.942;2023-07-13T09:53:13;100284.96;;;25.10;67.91
60920;BME280;59039;52.108;19.942;2023-07-13T09:55:40;100283.77;;;25.01;68.52
60920;BME280;59039;52.108;19.942;2023-07-13T10:00:33;100284.30;;;24.85;68.11
60920;BME280;59039;52.108;19.942;2023-07-13T10:03:00;100282.41;;;24.79;69.10
60920;BME280;59039;52.108;19.942;2023-07-13T10:05:26;100279.59;;;24.72;69.34
60920;BME280;59039;52.108;19.942;2023-07-13T10:07:51;100282.63;;;24.69;68.81
60920;BME280;59039;52.108;19.942;2023-07-13T10:10:17;100281.34;;;24.65;69.35
60920;BME280;59039;52.108;19.942;2023-07-13T10:12:43;100278.05;;;24.61;70.09
60920;BME280;59039;52.108;19.942;2023-07-13T10:15:13;100278.48;;;24.57;70.70
60920;BME280;59039;52.108;19.942;2023-07-13T10:17:39;100272.95;;;24.54;70.12
60920;BME280;59039;52.108;19.942;2023-07-13T10:20:05;100270.15;;;24.52;70.17
60920;BME280;59039;52.108;19.942;2023-07-13T10:22:49;100267.84;;;24.49;70.86
60920;BME280;59039;52.108;19.942;2023-07-13T10:25:16;100268.70;;;24.46;70.71
60920;BME280;59039;52.108;19.942;2023-07-13T10:27:42;100267.52;;;24.44;70.53
60920;BME280;59039;52.108;19.942;2023-07-13T10:30:19;100265.53;;;24.43;70.21
60920;BME280;59039;52.108;19.942;2023-07-13T10:32:45;100264.72;;;24.41;70.42
60920;BME280;59039;52.108;19.942;2023-07-13T10:35:12;100262.19;;;24.39;70.21
60920;BME280;59039;52.108;19.942;2023-07-13T10:37:43;100258.11;;;24.38;69.61
60920;BME280;59039;52.108;19.942;2023-07-13T10:40:14;100251.84;;;24.38;69.20
60920;BME280;59039;52.108;19.942;2023-07-13T10:42:42;100247.25;;;24.39;69.06
60920;BME280;59039;52.108;19.942;2023-07-13T10:45:28;100248.61;;;24.41;68.95
60920;BME280;59039;52.108;19.942;2023-07-13T10:47:54;100251.09;;;24.43;67.95
60920;BME280;59039;52.108;19.942;2023-07-13T10:50:21;100255.45;;;24.45;67.04
60920;BME280;59039;52.108;19.942;2023-07-13T10:52:51;100252.70;;;24.46;66.30
60920;BME280;59039;52.108;19.942;2023-07-13T10:55:37;100256.51;;;24.48;65.66
60920;BME280;59039;52.108;19.942;2023-07-13T10:58:11;100258.89;;;24.48;64.00
60920;BME280;59039;52.108;19.942;2023-07-13T11:00:43;100263.72;;;24.48;64.16
60920;BME280;59039;52.108;19.942;2023-07-13T11:03:13;100263.81;;;24.48;63.62
60920;BME280;59039;52.108;19.942;2023-07-13T11:05:39;100266.73;;;24.44;62.77
60920;BME280;59039;52.108;19.942;2023-07-13T11:08:31;100267.44;;;24.44;63.03
60920;BME280;59039;52.108;19.942;2023-07-13T11:10:57;100274.89;;;24.41;62.81
60920;BME280;59039;52.108;19.942;2023-07-13T11:16:33;100276.77;;;24.37;62.80
60920;BME280;59039;52.108;19.942;2023-07-13T11:19:38;100283.11;;;24.35;62.89
60920;BME280;59039;52.108;19.942;2023-07-13T11:21:41;100288.57;;;24.33;62.49
60920;BME280;59039;52.108;19.942;2023-07-13T11:24:22;100290.79;;;24.29;61.54
60920;BME280;59039;52.108;19.942;2023-07-13T11:31:38;100303.48;;;24.25;61.33
60920;BME280;59039;52.108;19.942;2023-07-13T11:34:06;100306.58;;;24.24;61.28
60920;BME280;59039;52.108;19.942;2023-07-13T11:36:37;100310.46;;;24.21;61.28
60920;BME280;59039;52.108;19.942;2023-07-13T11:39:05;100312.66;;;24.20;61.54
60920;BME280;59039;52.108;19.942;2023-07-13T11:44:20;100309.05;;;24.17;60.93
60920;BME280;59039;52.108;19.942;2023-07-13T11:46:47;100312.37;;;24.17;60.28
60920;BME280;59039;52.108;19.942;2023-07-13T11:49:15;100311.38;;;24.17;60.29
60920;BME280;59039;52.108;19.942;2023-07-13T11:51:40;100313.25;;;24.16;60.64
60920;BME280;59039;52.108;19.942;2023-07-13T11:54:12;100316.33;;;24.17;61.47
60920;BME280;59039;52.108;19.942;2023-07-13T11:56:40;100314.88;;;24.18;61.80
60920;BME280;59039;52.108;19.942;2023-07-13T11:59:06;100319.91;;;24.19;61.95
60920;BME280;59039;52.108;19.942;2023-07-13T12:01:32;100317.14;;;24.20;62.02
60920;BME280;59039;52.108;19.942;2023-07-13T12:03:59;100318.55;;;24.21;61.41
60920;BME280;59039;52.108;19.942;2023-07-13T12:06:27;100321.70;;;24.21;60.53
60920;BME280;59039;52.108;19.942;2023-07-13T12:08:52;100323.55;;;24.20;60.07
60920;BME280;59039;52.108;19.942;2023-07-13T12:11:20;100324.90;;;24.21;59.88
60920;BME280;59039;52.108;19.942;2023-07-13T12:13:46;100326.35;;;24.22;59.69
60920;BME280;59039;52.108;19.942;2023-07-13T12:16:16;100328.06;;;24.21;59.37
60920;BME280;59039;52.108;19.942;2023-07-13T12:18:42;100331.85;;;24.19;58.94
60920;BME280;59039;52.108;19.942;2023-07-13T12:21:10;100334.08;;;24.17;59.09
60920;BME280;59039;52.108;19.942;2023-07-13T12:23:37;100338.02;;;24.13;59.90
60920;BME280;59039;52.108;19.942;2023-07-13T12:26:03;100334.90;;;24.07;60.70
60920;BME280;59039;52.108;19.942;2023-07-13T12:28:31;100334.30;;;24.01;60.39
60920;BME280;59039;52.108;19.942;2023-07-13T12:31:00;100332.98;;;23.95;60.75
60920;BME280;59039;52.108;19.942;2023-07-13T12:33:28;100334.64;;;23.87;60.67
60920;BME280;59039;52.108;19.942;2023-07-13T12:35:53;100339.48;;;23.81;61.10
60920;BME280;59039;52.108;19.942;2023-07-13T12:38:19;100338.77;;;23.76;61.17
60920;BME280;59039;52.108;19.942;2023-07-13T12:40:44;100343.65;;;23.72;61.61
60920;BME280;59039;52.108;19.942;2023-07-13T12:43:11;100345.04;;;23.67;61.42
60920;BME280;59039;52.108;19.942;2023-07-13T12:45:36;100345.11;;;23.63;61.48
60920;BME280;59039;52.108;19.942;2023-07-13T12:48:10;100345.77;;;23.62;61.62
60920;BME280;59039;52.108;19.942;2023-07-13T12:50:39;100343.13;;;23.61;61.60
60920;BME280;59039;52.108;19.942;2023-07-13T12:53:05;100344.17;;;23.61;61.88
60920;BME280;59039;52.108;19.942;2023-07-13T12:55:31;100342.80;;;23.61;62.34
60920;BME280;59039;52.108;19.942;2023-07-13T12:57:57;100343.16;;;23.62;62.57
60920;BME280;59039;52.108;19.942;2023-07-13T13:00:24;100347.70;;;23.62;61.86
60920;BME280;59039;52.108;19.942;2023-07-13T13:02:52;100349.10;;;23.58;61.36